createdAt,value
2022-08-25T13:25:54.150Z,100055.16
2022-08-25T13:28:50.239Z,100047.25
2022-08-25T13:31:23.297Z,100058.75
2022-08-25T13:33:57.119Z,100049.88
2022-08-25T13:36:52.036Z,100044.50
2022-08-25T13:39:52.601Z,100050.13
2022-08-25T13:42:16.587Z,100037.47
2022-08-25T13:44:51.651Z,100032.53
2022-08-25T13:47:34.206Z,100034.22
2022-08-25T13:50:30.250Z,100021.44
2022-08-25T13:53:26.630Z,100010.72
2022-08-25T13:56:03.347Z,100015.56
2022-08-25T13:58:45.123Z,100024.56
2022-08-25T14:01:47.483Z,99996.88
2022-08-25T14:04:28.790Z,100016.22
2022-08-25T14:07:21.748Z,100008.63
2022-08-25T14:10:01.445Z,100001.28
2022-08-25T14:12:41.976Z,100012.03
2022-08-25T14:15:32.062Z,99998.44
2022-08-25T14:18:19.695Z,100011.03
2022-08-25T14:20:51.011Z,100004.25
2022-08-25T14:23:28.464Z,100003.25
2022-08-25T14:25:58.139Z,100012.25
2022-08-25T14:28:29.248Z,100002.50
2022-08-25T14:31:01.296Z,100000.78
2022-08-25T14:33:54.652Z,99990.63
2022-08-25T14:36:21.870Z,99994.09
2022-08-25T14:38:54.780Z,99983.31
2022-08-25T14:41:24.125Z,99980.03
2022-08-25T14:43:51.260Z,99991.09
2022-08-25T14:46:28.421Z,99982.84
2022-08-25T14:48:59.772Z,99982.50
2022-08-25T14:51:28.424Z,99952.72
2022-08-25T14:54:02.006Z,99971.72
2022-08-25T14:56:31.505Z,99966.69
2022-08-25T14:58:59.590Z,99972.53
2022-08-25T15:01:30.206Z,99970.78
2022-08-25T15:04:04.364Z,99973.09
2022-08-25T15:06:31.953Z,99956.41
2022-08-25T15:09:13.960Z,99947.66
2022-08-25T15:11:50.942Z,99961.88
2022-08-25T15:14:29.212Z,99957.38
2022-08-25T15:17:02.317Z,99947.41
2022-08-25T15:19:29.768Z,99948.63
2022-08-25T15:21:57.919Z,99949.72
2022-08-25T15:24:27.864Z,99939.94
2022-08-25T15:26:58.715Z,99918.34
2022-08-25T15:29:29.977Z,99944.69
2022-08-25T15:31:59.080Z,99937.75
2022-08-25T15:34:26.735Z,99922.00
2022-08-25T15:36:54.400Z,99934.06
2022-08-25T15:39:21.633Z,99936.91
2022-08-25T15:41:51.940Z,99912.47
2022-08-25T15:44:20.117Z,99920.84
2022-08-25T15:46:50.025Z,99915.50
2022-08-25T15:49:23.107Z,99920.34
2022-08-25T15:51:51.308Z,99921.97
2022-08-25T15:54:18.487Z,99918.72
2022-08-25T15:56:46.155Z,99917.13
2022-08-25T15:59:13.907Z,99931.75
2022-08-25T16:01:42.252Z,99914.47
2022-08-25T16:04:09.714Z,99900.03
2022-08-25T16:06:37.592Z,99914.84
2022-08-25T16:09:05.864Z,99908.09
2022-08-25T16:11:35.580Z,99917.28
2022-08-25T16:14:06.914Z,99919.00
2022-08-25T16:16:34.265Z,99919.19
2022-08-25T16:19:02.059Z,99915.91
2022-08-25T16:21:35.419Z,99913.16
2022-08-25T16:24:07.830Z,99928.50
2022-08-25T16:26:37.031Z,99922.50
2022-08-25T16:29:06.575Z,99920.09
2022-08-25T16:31:33.857Z,99915.16
2022-08-25T16:34:01.826Z,99923.38
2022-08-25T16:36:29.559Z,99920.13
2022-08-25T16:38:58.009Z,99911.44
2022-08-25T16:41:27.404Z,99921.78
2022-08-25T16:43:54.680Z,99921.94
2022-08-25T16:46:37.348Z,99905.72
2022-08-25T16:49:06.355Z,99912.75
2022-08-25T16:51:33.832Z,99906.97
2022-08-25T16:54:22.107Z,99882.09
2022-08-25T16:56:54.685Z,99906.50
2022-08-25T16:59:23.532Z,99914.41
2022-08-25T17:01:53.123Z,99908.22
2022-08-25T17:04:21.060Z,99909.81
2022-08-25T17:06:56.984Z,99881.25
2022-08-25T17:09:25.184Z,99885.25
2022-08-25T17:11:56.984Z,99908.84
2022-08-25T17:14:24.811Z,99911.88
2022-08-25T17:16:54.903Z,99877.44
2022-08-25T17:19:23.583Z,99878.44
2022-08-25T17:21:51.605Z,99903.28
2022-08-25T17:24:18.897Z,99890.84
2022-08-25T17:26:50.201Z,99896.97
2022-08-25T17:29:20.544Z,99869.06
2022-08-25T17:31:48.840Z,99901.03
2022-08-25T17:34:20.390Z,99895.00
2022-08-25T17:36:51.990Z,99893.59
2022-08-25T17:39:22.343Z,99893.28
2022-08-25T17:41:50.315Z,99890.84
2022-08-25T17:44:18.468Z,99887.81
2022-08-25T17:46:48.058Z,99899.91
2022-08-25T17:49:17.426Z,99899.25
2022-08-25T17:51:45.349Z,99900.06
2022-08-25T17:54:13.044Z,99893.06
2022-08-25T17:56:40.313Z,99896.41
2022-08-25T17:59:07.875Z,99897.22
2022-08-25T18:01:40.589Z,99898.88
2022-08-25T18:04:17.250Z,99885.22
2022-08-25T18:06:46.624Z,99906.75
2022-08-25T18:09:17.494Z,99908.09
2022-08-25T18:11:46.237Z,99903.34
2022-08-25T18:14:15.341Z,99904.44
2022-08-25T18:16:42.887Z,99914.91
2022-08-25T18:19:11.329Z,99911.78
2022-08-25T18:21:45.194Z,99909.44
2022-08-25T18:24:13.270Z,99916.59
2022-08-25T18:26:41.155Z,99914.13
2022-08-25T18:29:12.669Z,99918.81
2022-08-25T18:31:42.179Z,99906.97
2022-08-25T18:34:11.893Z,99921.13
2022-08-25T18:36:41.319Z,99921.78
2022-08-25T18:39:34.045Z,99919.31
2022-08-25T18:42:03.629Z,99929.06
2022-08-25T18:44:32.385Z,99899.63
2022-08-25T18:46:59.836Z,99914.25
2022-08-25T18:49:35.637Z,99885.66
2022-08-25T18:52:03.227Z,99883.34
2022-08-25T18:54:30.996Z,99917.53
2022-08-25T18:56:58.568Z,99907.38
2022-08-25T18:59:26.782Z,99918.50
2022-08-25T19:01:56.491Z,99918.66
2022-08-25T19:04:31.194Z,99904.78
2022-08-25T19:06:59.948Z,99921.78
2022-08-25T19:09:31.484Z,99923.00
2022-08-25T19:12:00.301Z,99921.31
2022-08-25T19:14:28.698Z,99875.13
2022-08-25T19:16:58.963Z,99919.13
2022-08-25T19:19:27.521Z,99932.53
2022-08-25T19:21:55.032Z,99930.75
2022-08-25T19:24:22.808Z,99933.38
2022-08-25T19:26:54.471Z,99927.16
2022-08-25T19:29:23.373Z,99926.22
2022-08-25T19:31:51.276Z,99932.34
2022-08-25T19:34:28.332Z,99929.03
2022-08-25T19:37:00.500Z,99930.25
2022-08-25T19:39:30.597Z,99923.47
2022-08-25T19:41:58.597Z,99934.38
2022-08-25T19:44:26.993Z,99935.19
2022-08-25T19:46:57.102Z,99908.47
2022-08-25T19:49:31.814Z,99935.25
2022-08-25T19:52:01.660Z,99945.13
2022-08-25T19:54:34.157Z,99941.44
2022-08-25T19:57:03.299Z,99951.31
2022-08-25T19:59:40.758Z,99942.91
2022-08-25T20:02:16.654Z,99941.44
2022-08-25T20:04:54.557Z,99947.00
2022-08-25T20:07:32.748Z,99944.50
2022-08-25T20:10:00.961Z,99950.44
2022-08-25T20:12:29.279Z,99938.94
2022-08-25T20:14:56.980Z,99943.97
2022-08-25T20:17:26.264Z,99948.78
2022-08-25T20:19:58.389Z,99945.53
2022-08-25T20:22:32.242Z,99957.00
2022-08-25T20:25:07.339Z,99952.94
2022-08-25T20:27:44.673Z,99946.25
2022-08-25T20:30:16.979Z,99946.44
2022-08-25T20:32:47.116Z,99942.78
2022-08-25T20:35:15.175Z,99944.72
2022-08-25T20:37:44.699Z,99952.47
2022-08-25T20:40:14.821Z,99947.72
2022-08-25T20:42:43.423Z,99944.19
2022-08-25T20:45:14.728Z,99955.03
2022-08-25T20:47:42.082Z,99946.75
2022-08-25T20:50:09.464Z,99950.38
2022-08-25T20:52:42.401Z,99953.72
2022-08-25T20:55:11.712Z,99955.28
2022-08-25T20:57:39.396Z,99935.38
2022-08-25T21:00:07.951Z,99937.06
2022-08-25T21:02:35.582Z,99941.66
2022-08-25T21:05:03.786Z,99946.88
2022-08-25T21:07:31.576Z,99953.41
2022-08-25T21:10:05.564Z,99927.72
2022-08-25T21:12:32.643Z,99950.50
2022-08-25T21:15:00.813Z,99953.59
2022-08-25T21:17:27.946Z,99953.34
2022-08-25T21:19:55.090Z,99956.91
2022-08-25T21:22:25.269Z,99951.38
2022-08-25T21:24:52.374Z,99952.78
2022-08-25T21:27:19.931Z,99957.75
2022-08-25T21:29:54.411Z,99954.63
2022-08-25T21:32:23.599Z,99946.25
2022-08-25T21:34:57.031Z,99951.97
2022-08-25T21:37:27.335Z,99943.94
2022-08-25T21:39:54.674Z,99942.53
2022-08-25T21:42:25.290Z,99944.56
2022-08-25T21:44:52.806Z,99953.00
2022-08-25T21:47:21.027Z,99950.25
2022-08-25T21:49:49.969Z,99948.59
2022-08-25T21:52:17.990Z,99931.78
2022-08-25T21:54:45.308Z,99953.28
2022-08-25T21:57:13.055Z,99930.63
2022-08-25T21:59:43.427Z,99952.66
2022-08-25T22:02:13.283Z,99959.88
2022-08-25T22:04:40.676Z,99953.19
2022-08-25T22:07:08.913Z,99958.69
2022-08-25T22:09:36.308Z,99932.63
2022-08-25T22:12:04.971Z,99957.03
2022-08-25T22:14:32.737Z,99950.16
2022-08-25T22:17:00.002Z,99953.00
2022-08-25T22:19:28.171Z,99946.25
2022-08-25T22:21:56.631Z,99962.81
2022-08-25T22:24:28.418Z,99958.28
2022-08-25T22:26:57.027Z,99949.56
2022-08-25T22:29:25.899Z,99957.88
2022-08-25T22:32:00.782Z,99955.59
2022-08-25T22:34:34.558Z,99950.66
2022-08-25T22:37:05.039Z,99956.38
2022-08-25T22:39:34.293Z,99954.41
2022-08-25T22:42:03.960Z,99958.84
2022-08-25T22:44:31.376Z,99956.91
2022-08-25T22:46:58.458Z,99965.47
2022-08-25T22:49:28.921Z,99958.22
2022-08-25T22:51:56.102Z,99955.28
2022-08-25T22:54:25.303Z,99950.16
2022-08-25T22:56:53.471Z,99958.28
2022-08-25T22:59:22.190Z,99956.72
2022-08-25T23:01:52.689Z,99959.78
2022-08-25T23:04:23.187Z,99952.94
2022-08-25T23:06:59.306Z,99959.84
2022-08-25T23:09:26.348Z,99949.22
2022-08-25T23:11:53.466Z,99953.16
2022-08-25T23:14:20.517Z,99938.81
2022-08-25T23:16:50.363Z,99954.16
2022-08-25T23:19:21.137Z,99947.38
2022-08-25T23:22:08.800Z,99944.78
2022-08-25T23:25:07.762Z,99948.91
2022-08-25T23:27:35.861Z,99918.03
2022-08-25T23:30:02.903Z,99941.47
2022-08-25T23:32:30.378Z,99945.34
2022-08-25T23:34:57.535Z,99943.56
2022-08-25T23:37:24.591Z,99936.13
2022-08-25T23:39:53.874Z,99930.81
2022-08-25T23:42:23.045Z,99937.63
2022-08-25T23:44:50.906Z,99941.44
2022-08-25T23:47:19.105Z,99940.13
2022-08-25T23:49:48.303Z,99936.63
2022-08-25T23:52:21.571Z,99932.69
2022-08-25T23:54:48.654Z,99939.81
2022-08-25T23:57:18.858Z,99934.69
2022-08-25T23:59:49.015Z,99931.16
